sensor_id;sensor_type;location;lat;lon;timestamp;P1;durP1;ratioP1;P2;durP2;ratioP2
21243;SDS011;10780;50.942;4.028;2022-12-07T00:00:41;18.10;;;10.52;;
21243;SDS011;10780;50.942;4.028;2022-12-07T00:03:06;15.25;;;10.70;;
21243;SDS011;10780;50.942;4.028;2022-12-07T00:05:32;14.85;;;9.63;;
21243;SDS011;10780;50.942;4.028;2022-12-07T00:07:58;14.52;;;8.88;;
21243;SDS011;10780;50.942;4.028;2022-12-07T00:10:23;16.00;;;10.65;;
21243;SDS011;10780;50.942;4.028;2022-12-07T00:12:49;16.05;;;10.10;;
21243;SDS011;10780;50.942;4.028;2022-12-07T00:15:15;15.50;;;10.35;;
21243;SDS011;10780;50.942;4.028;2022-12-07T00:17:41;11.57;;;9.65;;
21243;SDS011;10780;50.942;4.028;2022-12-07T00:20:06;13.82;;;9.55;;
21243;SDS011;10780;50.942;4.028;2022-12-07T00:22:32;12.95;;;9.55;;
21243;SDS011;10780;50.942;4.028;2022-12-07T00:24:58;13.45;;;10.02;;
21243;SDS011;10780;50.942;4.028;2022-12-07T00:27:23;13.77;;;9.63;;
21243;SDS011;10780;50.942;4.028;2022-12-07T00:29:49;15.98;;;10.43;;
21243;SDS011;10780;50.942;4.028;2022-12-07T00:32:15;13.32;;;9.45;;
21243;SDS011;10780;50.942;4.028;2022-12-07T00:34:40;16.15;;;9.77;;
21243;SDS011;10780;50.942;4.028;2022-12-07T00:37:06;13.63;;;9.25;;
21243;SDS011;10780;50.942;4.028;2022-12-07T00:39:31;15.50;;;9.95;;
21243;SDS011;10780;50.942;4.028;2022-12-07T00:41:57;13.85;;;9.45;;
21243;SDS011;10780;50.942;4.028;2022-12-07T00:44:22;12.27;;;8.85;;
21243;SDS011;10780;50.942;4.028;2022-12-07T00:46:48;16.80;;;8.85;;
21243;SDS011;10780;50.942;4.028;2022-12-07T00:49:14;15.45;;;9.25;;
21243;SDS011;10780;50.942;4.028;2022-12-07T00:51:39;12.85;;;8.57;;
21243;SDS011;10780;50.942;4.028;2022-12-07T00:54:05;13.00;;;8.10;;
21243;SDS011;10780;50.942;4.028;2022-12-07T00:56:30;12.55;;;9.05;;
21243;SDS011;10780;50.942;4.028;2022-12-07T00:59:00;15.38;;;9.75;;
21243;SDS011;10780;50.942;4.028;2022-12-07T01:01:29;15.00;;;9.00;;
21243;SDS011;10780;50.942;4.028;2022-12-07T01:03:57;14.88;;;9.13;;
21243;SDS011;10780;50.942;4.028;2022-12-07T01:06:23;12.93;;;9.15;;
21243;SDS011;10780;50.942;4.028;2022-12-07T01:08:49;15.02;;;8.82;;
21243;SDS011;10780;50.942;4.028;2022-12-07T01:11:17;12.82;;;9.20;;
21243;SDS011;10780;50.942;4.028;2022-12-07T01:13:44;16.02;;;9.00;;
21243;SDS011;10780;50.942;4.028;2022-12-07T01:16:11;12.00;;;8.45;;
21243;SDS011;10780;50.942;4.028;2022-12-07T01:18:39;12.40;;;8.52;;
21243;SDS011;10780;50.942;4.028;2022-12-07T01:21:07;13.02;;;8.73;;
21243;SDS011;10780;50.942;4.028;2022-12-07T01:23:33;12.23;;;8.02;;
21243;SDS011;10780;50.942;4.028;2022-12-07T01:26:00;10.70;;;7.25;;
21243;SDS011;10780;50.942;4.028;2022-12-07T01:28:29;14.60;;;8.25;;
21243;SDS011;10780;50.942;4.028;2022-12-07T01:30:56;10.32;;;7.07;;
21243;SDS011;10780;50.942;4.028;2022-12-07T01:33:26;12.38;;;7.35;;
21243;SDS011;10780;50.942;4.028;2022-12-07T01:35:53;9.27;;;6.65;;
21243;SDS011;10780;50.942;4.028;2022-12-07T01:38:19;10.02;;;6.47;;
21243;SDS011;10780;50.942;4.028;2022-12-07T01:40:44;12.43;;;7.07;;
21243;SDS011;10780;50.942;4.028;2022-12-07T01:43:14;10.63;;;6.38;;
21243;SDS011;10780;50.942;4.028;2022-12-07T01:45:42;8.73;;;6.18;;
21243;SDS011;10780;50.942;4.028;2022-12-07T01:48:08;10.82;;;7.13;;
21243;SDS011;10780;50.942;4.028;2022-12-07T01:50:36;9.23;;;7.00;;
21243;SDS011;10780;50.942;4.028;2022-12-07T01:53:04;9.38;;;6.03;;
21243;SDS011;10780;50.942;4.028;2022-12-07T01:55:34;10.10;;;6.07;;
21243;SDS011;10780;50.942;4.028;2022-12-07T01:58:03;9.32;;;5.78;;
21243;SDS011;10780;50.942;4.028;2022-12-07T02:00:29;8.63;;;5.88;;
21243;SDS011;10780;50.942;4.028;2022-12-07T02:02:57;10.80;;;5.82;;
21243;SDS011;10780;50.942;4.028;2022-12-07T02:05:37;7.07;;;5.70;;
21243;SDS011;10780;50.942;4.028;2022-12-07T02:08:05;8.63;;;5.13;;
21243;SDS011;10780;50.942;4.028;2022-12-07T02:10:32;8.55;;;5.47;;
21243;SDS011;10780;50.942;4.028;2022-12-07T02:13:02;8.30;;;5.45;;
21243;SDS011;10780;50.942;4.028;2022-12-07T02:15:58;9.35;;;5.50;;
21243;SDS011;10780;50.942;4.028;2022-12-07T02:21:23;10.02;;;5.72;;
21243;SDS011;10780;50.942;4.028;2022-12-07T02:24:24;6.35;;;5.13;;
21243;SDS011;10780;50.942;4.028;2022-12-07T02:37:25;10.93;;;6.28;;
21243;SDS011;10780;50.942;4.028;2022-12-07T02:40:05;11.18;;;6.70;;
21243;SDS011;10780;50.942;4.028;2022-12-07T02:42:38;10.45;;;5.93;;
21243;SDS011;10780;50.942;4.028;2022-12-07T02:45:10;12.23;;;6.22;;
21243;SDS011;10780;50.942;4.028;2022-12-07T02:47:39;9.23;;;6.43;;
21243;SDS011;10780;50.942;4.028;2022-12-07T02:50:06;10.88;;;7.35;;
21243;SDS011;10780;50.942;4.028;2022-12-07T02:52:32;10.25;;;6.82;;
21243;SDS011;10780;50.942;4.028;2022-12-07T02:54:58;12.73;;;6.95;;
21243;SDS011;10780;50.942;4.028;2022-12-07T03:00:34;15.23;;;7.45;;
21243;SDS011;10780;50.942;4.028;2022-12-07T03:03:10;14.50;;;8.27;;
21243;SDS011;10780;50.942;4.028;2022-12-07T03:11:06;15.95;;;9.38;;
21243;SDS011;10780;50.942;4.028;2022-12-07T03:13:45;13.55;;;8.70;;
21243;SDS011;10780;50.942;4.028;2022-12-07T03:16:19;14.07;;;8.82;;
21243;SDS011;10780;50.942;4.028;2022-12-07T03:18:51;18.05;;;9.95;;
21243;SDS011;10780;50.942;4.028;2022-12-07T03:21:21;16.85;;;9.73;;
21243;SDS011;10780;50.942;4.028;2022-12-07T03:23:53;16.45;;;10.00;;
21243;SDS011;10780;50.942;4.028;2022-12-07T03:26:22;16.42;;;9.20;;
21243;SDS011;10780;50.942;4.028;2022-12-07T03:28:58;15.48;;;10.07;;
21243;SDS011;10780;50.942;4.028;2022-12-07T03:31:29;16.65;;;9.43;;
21243;SDS011;10780;50.942;4.028;2022-12-07T03:34:00;13.95;;;9.15;;
21243;SDS011;10780;50.942;4.028;2022-12-07T03:39:22;12.88;;;8.43;;
21243;SDS011;10780;50.942;4.028;2022-12-07T03:41:49;14.32;;;9.25;;
21243;SDS011;10780;50.942;4.028;2022-12-07T03:44:16;17.45;;;9.07;;
21243;SDS011;10780;50.942;4.028;2022-12-07T03:49:27;14.32;;;9.73;;
21243;SDS011;10780;50.942;4.028;2022-12-07T03:54:48;21.25;;;9.70;;
21243;SDS011;10780;50.942;4.028;2022-12-07T03:57:14;14.75;;;9.50;;
21243;SDS011;10780;50.942;4.028;2022-12-07T03:59:42;13.20;;;9.27;;
21243;SDS011;10780;50.942;4.028;2022-12-07T04:02:08;13.65;;;9.10;;
21243;SDS011;10780;50.942;4.028;2022-12-07T04:04:37;12.75;;;9.25;;
21243;SDS011;10780;50.942;4.028;2022-12-07T04:07:04;13.48;;;9.60;;
21243;SDS011;10780;50.942;4.028;2022-12-07T04:09:29;15.27;;;9.60;;
21243;SDS011;10780;50.942;4.028;2022-12-07T04:11:55;15.15;;;9.60;;
21243;SDS011;10780;50.942;4.028;2022-12-07T04:14:21;13.25;;;9.73;;
21243;SDS011;10780;50.942;4.028;2022-12-07T04:16:51;13.98;;;8.88;;
21243;SDS011;10780;50.942;4.028;2022-12-07T04:19:23;12.75;;;8.75;;
21243;SDS011;10780;50.942;4.028;2022-12-07T04:21:54;14.00;;;8.82;;
21243;SDS011;10780;50.942;4.028;2022-12-07T04:24:21;10.50;;;8.10;;
21243;SDS011;10780;50.942;4.028;2022-12-07T04:26:48;14.43;;;9.02;;
21243;SDS011;10780;50.942;4.028;2022-12-07T04:29:14;15.88;;;9.10;;
21243;SDS011;10780;50.942;4.028;2022-12-07T04:31:40;12.88;;;8.35;;
21243;SDS011;10780;50.942;4.028;2022-12-07T04:34:06;14.68;;;8.32;;
21243;SDS011;10780;50.942;4.028;2022-12-07T04:36:33;11.02;;;8.27;;
21243;SDS011;10780;50.942;4.028;2022-12-07T04:38:58;12.80;;;8.80;;
21243;SDS011;10780;50.942;4.028;2022-12-07T04:41:24;11.57;;;8.10;;
21243;SDS011;10780;50.942;4.028;2022-12-07T04:46:24;15.93;;;8.27;;
21243;SDS011;10780;50.942;4.028;2022-12-07T04:48:51;14.13;;;8.10;;
21243;SDS011;10780;50.942;4.028;2022-12-07T04:51:36;14.52;;;9.00;;
21243;SDS011;10780;50.942;4.028;2022-12-07T04:54:01;13.73;;;8.07;;
21243;SDS011;10780;50.942;4.028;2022-12-07T04:56:28;11.48;;;8.57;;
21243;SDS011;10780;50.942;4.028;2022-12-07T04:58:53;12.50;;;8.15;;
21243;SDS011;10780;50.942;4.028;2022-12-07T05:01:20;12.93;;;8.40;;
21243;SDS011;10780;50.942;4.028;2022-12-07T05:03:47;12.90;;;8.63;;
21243;SDS011;10780;50.942;4.028;2022-12-07T05:06:13;11.98;;;8.43;;
21243;SDS011;10780;50.942;4.028;2022-12-07T05:08:39;12.23;;;9.07;;
21243;SDS011;10780;50.942;4.028;2022-12-07T05:11:06;12.00;;;8.20;;
21243;SDS011;10780;50.942;4.028;2022-12-07T05:13:32;17.55;;;8.75;;
21243;SDS011;10780;50.942;4.028;2022-12-07T05:15:58;14.85;;;8.45;;
21243;SDS011;10780;50.942;4.028;2022-12-07T05:18:24;17.08;;;9.52;;
21243;SDS011;10780;50.942;4.028;2022-12-07T05:20:50;14.32;;;8.90;;
21243;SDS011;10780;50.942;4.028;2022-12-07T05:23:16;12.90;;;8.25;;
21243;SDS011;10780;50.942;4.028;2022-12-07T05:25:42;15.48;;;9.63;;
21243;SDS011;10780;50.942;4.028;2022-12-07T05:28:08;15.52;;;8.30;;
21243;SDS011;10780;50.942;4.028;2022-12-07T05:30:34;15.40;;;8.55;;
21243;SDS011;10780;50.942;4.028;2022-12-07T05:33:00;12.90;;;8.27;;
21243;SDS011;10780;50.942;4.028;2022-12-07T05:35:25;14.93;;;8.32;;
21243;SDS011;10780;50.942;4.028;2022-12-07T05:37:51;19.90;;;8.40;;
21243;SDS011;10780;50.942;4.028;2022-12-07T05:40:17;10.40;;;7.85;;
21243;SDS011;10780;50.942;4.028;2022-12-07T05:42:43;12.23;;;7.72;;
21243;SDS011;10780;50.942;4.028;2022-12-07T05:45:09;12.00;;;7.53;;
21243;SDS011;10780;50.942;4.028;2022-12-07T05:47:35;9.75;;;7.03;;
21243;SDS011;10780;50.942;4.028;2022-12-07T05:50:01;9.57;;;7.00;;
21243;SDS011;10780;50.942;4.028;2022-12-07T05:52:28;11.02;;;6.57;;
21243;SDS011;10780;50.942;4.028;2022-12-07T05:54:54;13.80;;;6.72;;
21243;SDS011;10780;50.942;4.028;2022-12-07T05:57:19;11.98;;;6.78;;
21243;SDS011;10780;50.942;4.028;2022-12-07T05:59:45;19.15;;;6.88;;
21243;SDS011;10780;50.942;4.028;2022-12-07T06:02:12;10.63;;;7.03;;
21243;SDS011;10780;50.942;4.028;2022-12-07T06:04:40;11.88;;;7.07;;
21243;SDS011;10780;50.942;4.028;2022-12-07T06:07:07;12.10;;;6.93;;
21243;SDS011;10780;50.942;4.028;2022-12-07T06:09:34;13.38;;;7.07;;
21243;SDS011;10780;50.942;4.028;2022-12-07T06:12:00;16.52;;;7.65;;
21243;SDS011;10780;50.942;4.028;2022-12-07T06:14:45;12.38;;;6.47;;
21243;SDS011;10780;50.942;4.028;2022-12-07T06:17:11;9.10;;;6.70;;
21243;SDS011;10780;50.942;4.028;2022-12-07T06:19:37;10.43;;;6.28;;
21243;SDS011;10780;50.942;4.028;2022-12-07T06:22:04;9.30;;;5.78;;
21243;SDS011;10780;50.942;4.028;2022-12-07T06:24:30;10.52;;;6.60;;
21243;SDS011;10780;50.942;4.028;2022-12-07T06:26:57;9.52;;;6.00;;
21243;SDS011;10780;50.942;4.028;2022-12-07T06:29:23;10.77;;;6.05;;
21243;SDS011;10780;50.942;4.028;2022-12-07T06:31:48;8.02;;;5.68;;
21243;SDS011;10780;50.942;4.028;2022-12-07T06:34:16;8.75;;;5.65;;
21243;SDS011;10780;50.942;4.028;2022-12-07T06:36:43;10.38;;;5.75;;
21243;SDS011;10780;50.942;4.028;2022-12-07T06:39:10;10.52;;;6.50;;
21243;SDS011;10780;50.942;4.028;2022-12-07T06:41:36;14.73;;;5.85;;
21243;SDS011;10780;50.942;4.028;2022-12-07T06:44:03;13.43;;;6.25;;
21243;SDS011;10780;50.942;4.028;2022-12-07T06:46:32;12.48;;;5.85;;
21243;SDS011;10780;50.942;4.028;2022-12-07T06:48:58;9.88;;;6.22;;
21243;SDS011;10780;50.942;4.028;2022-12-07T06:51:24;13.43;;;6.55;;
21243;SDS011;10780;50.942;4.028;2022-12-07T06:53:49;10.05;;;5.95;;
21243;SDS011;10780;50.942;4.028;2022-12-07T06:56:15;11.00;;;6.53;;
21243;SDS011;10780;50.942;4.028;2022-12-07T06:58:41;9.52;;;6.05;;
21243;SDS011;10780;50.942;4.028;2022-12-07T07:01:10;11.38;;;7.05;;
21243;SDS011;10780;50.942;4.028;2022-12-07T07:03:41;10.80;;;6.80;;
21243;SDS011;10780;50.942;4.028;2022-12-07T07:06:07;12.75;;;9.30;;
21243;SDS011;10780;50.942;4.028;2022-12-07T07:08:33;10.75;;;6.88;;
21243;SDS011;10780;50.942;4.028;2022-12-07T07:11:00;15.38;;;10.27;;
21243;SDS011;10780;50.942;4.028;2022-12-07T07:13:26;9.82;;;6.82;;
21243;SDS011;10780;50.942;4.028;2022-12-07T07:15:52;10.73;;;6.85;;
21243;SDS011;10780;50.942;4.028;2022-12-07T07:18:19;14.57;;;10.00;;
21243;SDS011;10780;50.942;4.028;2022-12-07T07:20:47;11.93;;;7.72;;
21243;SDS011;10780;50.942;4.028;2022-12-07T07:23:14;10.95;;;8.07;;
21243;SDS011;10780;50.942;4.028;2022-12-07T07:26:19;12.95;;;7.97;;
21243;SDS011;10780;50.942;4.028;2022-12-07T07:28:46;11.38;;;7.07;;
21243;SDS011;10780;50.942;4.028;2022-12-07T07:31:12;13.15;;;9.00;;
21243;SDS011;10780;50.942;4.028;2022-12-07T07:33:38;15.25;;;8.07;;
21243;SDS011;10780;50.942;4.028;2022-12-07T07:36:03;12.32;;;8.13;;
21243;SDS011;10780;50.942;4.028;2022-12-07T07:38:33;14.60;;;7.90;;
21243;SDS011;10780;50.942;4.028;2022-12-07T07:41:05;12.25;;;7.15;;
21243;SDS011;10780;50.942;4.028;2022-12-07T07:43:43;14.48;;;8.35;;
21243;SDS011;10780;50.942;4.028;2022-12-07T07:46:13;14.88;;;8.68;;
21243;SDS011;10780;50.942;4.028;2022-12-07T07:48:51;9.48;;;7.50;;
21243;SDS011;10780;50.942;4.028;2022-12-07T07:51:39;13.95;;;8.90;;
21243;SDS011;10780;50.942;4.028;2022-12-07T07:57:28;15.40;;;8.65;;
21243;SDS011;10780;50.942;4.028;2022-12-07T08:00:05;13.60;;;9.60;;
21243;SDS011;10780;50.942;4.028;2022-12-07T08:10:21;12.73;;;7.68;;
21243;SDS011;10780;50.942;4.028;2022-12-07T08:20:15;14.70;;;8.57;;
21243;SDS011;10780;50.942;4.028;2022-12-07T08:26:38;11.80;;;7.70;;
21243;SDS011;10780;50.942;4.028;2022-12-07T08:33:21;13.38;;;8.50;;
21243;SDS011;10780;50.942;4.028;2022-12-07T08:36:10;11.88;;;7.97;;
21243;SDS011;10780;50.942;4.028;2022-12-07T08:45:32;16.17;;;7.80;;
21243;SDS011;10780;50.942;4.028;2022-12-07T09:05:13;13.07;;;7.38;;
21243;SDS011;10780;50.942;4.028;2022-12-07T09:13:25;8.93;;;6.88;;
21243;SDS011;10780;50.942;4.028;2022-12-07T09:15:53;7.40;;;6.57;;
21243;SDS011;10780;50.942;4.028;2022-12-07T09:18:31;10.80;;;7.13;;
21243;SDS011;10780;50.942;4.028;2022-12-07T09:20:57;9.63;;;7.05;;
21243;SDS011;10780;50.942;4.028;2022-12-07T09:23:25;14.15;;;8.15;;
21243;SDS011;10780;50.942;4.028;2022-12-07T09:25:51;9.45;;;7.45;;
21243;SDS011;10780;50.942;4.028;2022-12-07T09:28:18;11.57;;;7.82;;
21243;SDS011;10780;50.942;4.028;2022-12-07T09:30:47;10.18;;;8.05;;
21243;SDS011;10780;50.942;4.028;2022-12-07T09:33:14;10.05;;;7.53;;
21243;SDS011;10780;50.942;4.028;2022-12-07T09:35:46;20.50;;;9.63;;
21243;SDS011;10780;50.942;4.028;2022-12-07T09:38:13;15.90;;;10.35;;
21243;SDS011;10780;50.942;4.028;2022-12-07T09:40:40;17.25;;;8.85;;
21243;SDS011;10780;50.942;4.028;2022-12-07T09:43:42;11.77;;;8.32;;
21243;SDS011;10780;50.942;4.028;2022-12-07T09:46:04;9.73;;;6.80;;
21243;SDS011;10780;50.942;4.028;2022-12-07T09:48:34;9.50;;;5.82;;
21243;SDS011;10780;50.942;4.028;2022-12-07T09:51:02;12.52;;;7.32;;
21243;SDS011;10780;50.942;4.028;2022-12-07T09:53:36;10.40;;;7.25;;
21243;SDS011;10780;50.942;4.028;2022-12-07T09:56:03;7.75;;;5.53;;
21243;SDS011;10780;50.942;4.028;2022-12-07T09:58:30;8.38;;;6.22;;
21243;SDS011;10780;50.942;4.028;2022-12-07T10:03:54;11.10;;;7.15;;
21243;SDS011;10780;50.942;4.028;2022-12-07T10:06:25;12.15;;;7.75;;
21243;SDS011;10780;50.942;4.028;2022-12-07T10:08:51;6.80;;;5.07;;
21243;SDS011;10780;50.942;4.028;2022-12-07T10:11:17;11.57;;;5.45;;
21243;SDS011;10780;50.942;4.028;2022-12-07T10:13:44;11.90;;;5.90;;
21243;SDS011;10780;50.942;4.028;2022-12-07T10:18:59;11.18;;;6.85;;
21243;SDS011;10780;50.942;4.028;2022-12-07T10:21:58;10.65;;;6.50;;
21243;SDS011;10780;50.942;4.028;2022-12-07T10:24:35;8.55;;;5.68;;
21243;SDS011;10780;50.942;4.028;2022-12-07T10:27:04;11.00;;;5.78;;
21243;SDS011;10780;50.942;4.028;2022-12-07T10:29:31;7.00;;;5.50;;
21243;SDS011;10780;50.942;4.028;2022-12-07T10:32:00;11.27;;;5.78;;
21243;SDS011;10780;50.942;4.028;2022-12-07T10:34:34;8.40;;;5.57;;
21243;SDS011;10780;50.942;4.028;2022-12-07T10:40:01;8.45;;;5.50;;
21243;SDS011;10780;50.942;4.028;2022-12-07T10:42:31;6.30;;;4.68;;
21243;SDS011;10780;50.942;4.028;2022-12-07T10:45:16;8.27;;;4.65;;
21243;SDS011;10780;50.942;4.028;2022-12-07T10:50:34;6.32;;;4.65;;
21243;SDS011;10780;50.942;4.028;2022-12-07T11:01:45;5.43;;;3.70;;
21243;SDS011;10780;50.942;4.028;2022-12-07T11:07:38;7.13;;;3.40;;
21243;SDS011;10780;50.942;4.028;2022-12-07T11:13:13;6.20;;;3.00;;
21243;SDS011;10780;50.942;4.028;2022-12-07T11:24:18;5.18;;;2.92;;
21243;SDS011;10780;50.942;4.028;2022-12-07T11:26:56;5.28;;;2.88;;
21243;SDS011;10780;50.942;4.028;2022-12-07T11:35:27;4.78;;;2.60;;
21243;SDS011;10780;50.942;4.028;2022-12-07T11:38:10;5.05;;;2.60;;
21243;SDS011;10780;50.942;4.028;2022-12-07T11:40:39;6.75;;;3.33;;
21243;SDS011;10780;50.942;4.028;2022-12-07T11:45:43;9.27;;;3.03;;
21243;SDS011;10780;50.942;4.028;2022-12-07T11:56:34;2.85;;;2.20;;
21243;SDS011;10780;50.942;4.028;2022-12-07T11:58:42;7.82;;;2.92;;
21243;SDS011;10780;50.942;4.028;2022-12-07T12:04:06;5.53;;;3.03;;
21243;SDS011;10780;50.942;4.028;2022-12-07T12:06:45;6.25;;;4.05;;
21243;SDS011;10780;50.942;4.028;2022-12-07T12:09:18;10.18;;;4.00;;
21243;SDS011;10780;50.942;4.028;2022-12-07T12:20:26;7.35;;;4.70;;
21243;SDS011;10780;50.942;4.028;2022-12-07T12:25:48;8.90;;;4.10;;
21243;SDS011;10780;50.942;4.028;2022-12-07T12:28:19;6.65;;;4.28;;
21243;SDS011;10780;50.942;4.028;2022-12-07T12:31:04;7.13;;;4.07;;
21243;SDS011;10780;50.942;4.028;2022-12-07T12:33:30;6.22;;;3.63;;
21243;SDS011;10780;50.942;4.028;2022-12-07T12:38:51;6.47;;;3.17;;
21243;SDS011;10780;50.942;4.028;2022-12-07T12:42:01;2.33;;;2.00;;
21243;SDS011;10780;50.942;4.028;2022-12-07T12:46:54;2.13;;;1.50;;
21243;SDS011;10780;50.942;4.028;2022-12-07T12:51:52;3.45;;;1.30;;
21243;SDS011;10780;50.942;4.028;2022-12-07T12:54:22;4.35;;;1.30;;
21243;SDS011;10780;50.942;4.028;2022-12-07T13:02:26;5.30;;;1.50;;
21243;SDS011;10780;50.942;4.028;2022-12-07T13:18:37;5.57;;;2.60;;
21243;SDS011;10780;50.942;4.028;2022-12-07T13:26:06;6.55;;;3.15;;
21243;SDS011;10780;50.942;4.028;2022-12-07T13:28:40;4.93;;;2.80;;
21243;SDS011;10780;50.942;4.028;2022-12-07T13:31:16;6.57;;;3.15;;
21243;SDS011;10780;50.942;4.028;2022-12-07T13:33:45;5.38;;;2.75;;
21243;SDS011;10780;50.942;4.028;2022-12-07T13:36:22;3.83;;;2.53;;
21243;SDS011;10780;50.942;4.028;2022-12-07T13:38:53;5.22;;;2.15;;
21243;SDS011;10780;50.942;4.028;2022-12-07T13:41:27;4.20;;;2.58;;
21243;SDS011;10780;50.942;4.028;2022-12-07T13:44:05;3.97;;;2.00;;
21243;SDS011;10780;50.942;4.028;2022-12-07T13:46:41;2.55;;;1.85;;
21243;SDS011;10780;50.942;4.028;2022-12-07T13:49:20;3.33;;;1.70;;
21243;SDS011;10780;50.942;4.028;2022-12-07T13:51:50;4.45;;;2.10;;
21243;SDS011;10780;50.942;4.028;2022-12-07T13:54:17;3.63;;;1.92;;
21243;SDS011;10780;50.942;4.028;2022-12-07T13:56:47;5.47;;;2.17;;
21243;SDS011;10780;50.942;4.028;2022-12-07T13:59:19;3.60;;;2.38;;
21243;SDS011;10780;50.942;4.028;2022-12-07T14:01:48;5.88;;;2.92;;
21243;SDS011;10780;50.942;4.028;2022-12-07T14:04:32;4.60;;;2.05;;
21243;SDS011;10780;50.942;4.028;2022-12-07T14:07:18;5.70;;;2.42;;
21243;SDS011;10780;50.942;4.028;2022-12-07T14:10:34;5.70;;;2.70;;
21243;SDS011;10780;50.942;4.028;2022-12-07T14:12:54;5.95;;;3.03;;
21243;SDS011;10780;50.942;4.028;2022-12-07T14:15:21;2.70;;;1.98;;
21243;SDS011;10780;50.942;4.028;2022-12-07T14:17:53;4.95;;;1.90;;
21243;SDS011;10780;50.942;4.028;2022-12-07T14:20:30;6.15;;;2.03;;
21243;SDS011;10780;50.942;4.028;2022-12-07T14:22:58;4.35;;;2.00;;
21243;SDS011;10780;50.942;4.028;2022-12-07T14:25:25;6.20;;;2.95;;
21243;SDS011;10780;50.942;4.028;2022-12-07T14:27:53;4.78;;;2.20;;
21243;SDS011;10780;50.942;4.028;2022-12-07T14:30:25;4.90;;;2.70;;
21243;SDS011;10780;50.942;4.028;2022-12-07T14:32:59;5.82;;;2.70;;
21243;SDS011;10780;50.942;4.028;2022-12-07T14:35:27;5.47;;;3.00;;
21243;SDS011;10780;50.942;4.028;2022-12-07T14:37:54;4.13;;;3.10;;
21243;SDS011;10780;50.942;4.028;2022-12-07T14:40:21;3.95;;;3.10;;
21243;SDS011;10780;50.942;4.028;2022-12-07T14:42:50;6.28;;;2.90;;
21243;SDS011;10780;50.942;4.028;2022-12-07T14:45:20;6.72;;;3.30;;
21243;SDS011;10780;50.942;4.028;2022-12-07T14:47:47;5.50;;;3.55;;
21243;SDS011;10780;50.942;4.028;2022-12-07T14:50:14;7.20;;;3.60;;
21243;SDS011;10780;50.942;4.028;2022-12-07T14:52:43;6.15;;;3.30;;
21243;SDS011;10780;50.942;4.028;2022-12-07T14:55:25;6.05;;;4.10;;
21243;SDS011;10780;50.942;4.028;2022-12-07T14:57:53;4.57;;;3.70;;
21243;SDS011;10780;50.942;4.028;2022-12-07T15:00:20;7.65;;;4.28;;
21243;SDS011;10780;50.942;4.028;2022-12-07T15:02:47;7.13;;;5.10;;
21243;SDS011;10780;50.942;4.028;2022-12-07T15:05:14;7.82;;;4.10;;
21243;SDS011;10780;50.942;4.028;2022-12-07T15:07:40;8.75;;;4.10;;
21243;SDS011;10780;50.942;4.028;2022-12-07T15:10:08;5.78;;;3.10;;
21243;SDS011;10780;50.942;4.028;2022-12-07T15:12:40;5.95;;;3.63;;
21243;SDS011;10780;50.942;4.028;2022-12-07T15:15:05;7.97;;;3.75;;
21243;SDS011;10780;50.942;4.028;2022-12-07T15:17:31;7.60;;;3.25;;
21243;SDS011;10780;50.942;4.028;2022-12-07T15:19:57;6.85;;;4.55;;
21243;SDS011;10780;50.942;4.028;2022-12-07T15:22:22;9.32;;;4.15;;
21243;SDS011;10780;50.942;4.028;2022-12-07T15:24:48;8.00;;;5.20;;
21243;SDS011;10780;50.942;4.028;2022-12-07T15:27:14;10.70;;;5.20;;
21243;SDS011;10780;50.942;4.028;2022-12-07T15:29:39;8.07;;;5.22;;
21243;SDS011;10780;50.942;4.028;2022-12-07T15:32:05;7.68;;;5.20;;
21243;SDS011;10780;50.942;4.028;2022-12-07T15:34:31;8.00;;;4.25;;
21243;SDS011;10780;50.942;4.028;2022-12-07T15:36:56;8.25;;;4.57;;
21243;SDS011;10780;50.942;4.028;2022-12-07T15:39:22;8.35;;;4.13;;
21243;SDS011;10780;50.942;4.028;2022-12-07T15:41:48;10.43;;;4.53;;
21243;SDS011;10780;50.942;4.028;2022-12-07T15:44:14;9.13;;;4.65;;
21243;SDS011;10780;50.942;4.028;2022-12-07T15:46:59;8.50;;;4.95;;
21243;SDS011;10780;50.942;4.028;2022-12-07T15:49:25;8.85;;;5.00;;
21243;SDS011;10780;50.942;4.028;2022-12-07T15:51:52;8.18;;;4.80;;
21243;SDS011;10780;50.942;4.028;2022-12-07T15:54:27;11.50;;;6.15;;
21243;SDS011;10780;50.942;4.028;2022-12-07T15:56:54;11.38;;;5.50;;
21243;SDS011;10780;50.942;4.028;2022-12-07T15:59:21;10.55;;;4.82;;
21243;SDS011;10780;50.942;4.028;2022-12-07T16:01:46;11.68;;;6.47;;
21243;SDS011;10780;50.942;4.028;2022-12-07T16:04:12;11.10;;;5.90;;
21243;SDS011;10780;50.942;4.028;2022-12-07T16:06:38;11.38;;;6.45;;
21243;SDS011;10780;50.942;4.028;2022-12-07T16:09:04;13.55;;;7.78;;
21243;SDS011;10780;50.942;4.028;2022-12-07T16:11:30;12.95;;;8.43;;
21243;SDS011;10780;50.942;4.028;2022-12-07T16:13:56;13.95;;;8.30;;
21243;SDS011;10780;50.942;4.028;2022-12-07T16:16:22;14.20;;;8.35;;
21243;SDS011;10780;50.942;4.028;2022-12-07T16:18:48;12.27;;;7.68;;
21243;SDS011;10780;50.942;4.028;2022-12-07T16:21:15;11.15;;;8.25;;
21243;SDS011;10780;50.942;4.028;2022-12-07T16:23:41;13.75;;;8.25;;
21243;SDS011;10780;50.942;4.028;2022-12-07T16:26:14;13.77;;;7.95;;
21243;SDS011;10780;50.942;4.028;2022-12-07T16:28:42;13.88;;;8.20;;
21243;SDS011;10780;50.942;4.028;2022-12-07T16:31:09;12.48;;;7.80;;
21243;SDS011;10780;50.942;4.028;2022-12-07T16:33:37;14.80;;;9.10;;
21243;SDS011;10780;50.942;4.028;2022-12-07T16:36:05;16.80;;;7.90;;
21243;SDS011;10780;50.942;4.028;2022-12-07T16:38:32;12.48;;;7.00;;
21243;SDS011;10780;50.942;4.028;2022-12-07T16:40:59;10.10;;;6.97;;
21243;SDS011;10780;50.942;4.028;2022-12-07T16:43:25;11.73;;;6.13;;
21243;SDS011;10780;50.942;4.028;2022-12-07T16:45:50;9.85;;;5.93;;
21243;SDS011;10780;50.942;4.028;2022-12-07T16:48:16;9.80;;;5.45;;
21243;SDS011;10780;50.942;4.028;2022-12-07T16:50:42;7.95;;;5.45;;
21243;SDS011;10780;50.942;4.028;2022-12-07T16:53:09;5.95;;;4.88;;
21243;SDS011;10780;50.942;4.028;2022-12-07T16:55:39;13.65;;;7.97;;
21243;SDS011;10780;50.942;4.028;2022-12-07T16:58:07;13.18;;;8.52;;
21243;SDS011;10780;50.942;4.028;2022-12-07T17:00:33;13.70;;;7.45;;
21243;SDS011;10780;50.942;4.028;2022-12-07T17:02:59;16.55;;;8.95;;
21243;SDS011;10780;50.942;4.028;2022-12-07T17:05:25;15.25;;;7.95;;
21243;SDS011;10780;50.942;4.028;2022-12-07T17:07:53;13.30;;;8.32;;
21243;SDS011;10780;50.942;4.028;2022-12-07T17:10:19;10.90;;;6.13;;
21243;SDS011;10780;50.942;4.028;2022-12-07T17:12:45;11.18;;;6.18;;
21243;SDS011;10780;50.942;4.028;2022-12-07T17:15:10;13.45;;;6.80;;
21243;SDS011;10780;50.942;4.028;2022-12-07T17:18:00;17.98;;;9.88;;
21243;SDS011;10780;50.942;4.028;2022-12-07T17:20:26;12.80;;;8.25;;
21243;SDS011;10780;50.942;4.028;2022-12-07T17:22:52;12.13;;;7.70;;
21243;SDS011;10780;50.942;4.028;2022-12-07T17:25:18;14.02;;;9.75;;
21243;SDS011;10780;50.942;4.028;2022-12-07T17:27:44;15.82;;;10.63;;
21243;SDS011;10780;50.942;4.028;2022-12-07T17:30:11;18.60;;;12.30;;
21243;SDS011;10780;50.942;4.028;2022-12-07T17:32:38;19.70;;;12.38;;
21243;SDS011;10780;50.942;4.028;2022-12-07T17:35:04;19.38;;;12.35;;
21243;SDS011;10780;50.942;4.028;2022-12-07T17:37:30;12.68;;;10.65;;
21243;SDS011;10780;50.942;4.028;2022-12-07T17:39:56;15.98;;;9.93;;
21243;SDS011;10780;50.942;4.028;2022-12-07T17:42:23;16.40;;;11.23;;
21243;SDS011;10780;50.942;4.028;2022-12-07T17:45:01;18.30;;;12.88;;
21243;SDS011;10780;50.942;4.028;2022-12-07T17:47:27;18.95;;;12.73;;
21243;SDS011;10780;50.942;4.028;2022-12-07T17:49:53;18.15;;;11.52;;
21243;SDS011;10780;50.942;4.028;2022-12-07T17:52:19;17.20;;;10.57;;
21243;SDS011;10780;50.942;4.028;2022-12-07T17:55:03;22.42;;;12.68;;
21243;SDS011;10780;50.942;4.028;2022-12-07T17:57:29;19.90;;;11.80;;